createdAt,value
2024-01-19T00:01:24.305Z,12.82
2024-01-19T00:04:26.745Z,12.43
2024-01-19T00:07:29.018Z,13.90
2024-01-19T00:10:33.931Z,15.13
2024-01-19T00:13:36.102Z,16.48
2024-01-19T00:16:42.403Z,16.37
2024-01-19T00:19:44.684Z,16.77
2024-01-19T00:22:46.946Z,15.50
2024-01-19T00:25:49.094Z,17.57
2024-01-19T00:28:51.453Z,15.85
2024-01-19T00:31:53.665Z,17.88
2024-01-19T00:34:55.903Z,17.35
2024-01-19T00:37:58.029Z,16.52
2024-01-19T00:41:00.269Z,21.25
2024-01-19T00:44:02.460Z,19.13
2024-01-19T00:47:05.111Z,17.30
2024-01-19T00:50:08.282Z,18.27
2024-01-19T00:53:10.452Z,17.55
2024-01-19T00:56:12.709Z,18.73
2024-01-19T00:59:15.034Z,18.08
2024-01-19T01:02:17.340Z,18.67
2024-01-19T01:05:20.680Z,17.27
2024-01-19T01:08:29.333Z,16.48
2024-01-19T01:11:31.760Z,16.77
2024-01-19T01:14:34.008Z,16.20
2024-01-19T01:17:36.408Z,15.23
2024-01-19T01:20:39.015Z,14.77
2024-01-19T01:23:41.389Z,13.23
2024-01-19T01:26:43.628Z,15.07
2024-01-19T01:29:45.911Z,12.43
2024-01-19T01:32:48.272Z,14.68
2024-01-19T01:35:50.561Z,14.52
2024-01-19T01:38:52.956Z,14.02
2024-01-19T01:41:55.345Z,13.63
2024-01-19T01:44:58.255Z,12.25
2024-01-19T01:48:01.158Z,13.03
2024-01-19T01:51:05.596Z,14.48
2024-01-19T01:54:09.005Z,12.25
2024-01-19T01:57:11.248Z,13.77
2024-01-19T02:00:15.583Z,14.48
2024-01-19T02:03:18.207Z,12.93
2024-01-19T02:06:20.593Z,14.07
2024-01-19T02:09:22.936Z,12.57
2024-01-19T02:12:25.207Z,13.05
2024-01-19T02:15:27.406Z,13.68
2024-01-19T02:18:29.791Z,14.93
2024-01-19T02:21:32.288Z,14.77
2024-01-19T02:24:34.943Z,13.02
2024-01-19T02:27:37.152Z,14.83
2024-01-19T02:30:41.615Z,12.88
2024-01-19T02:33:43.904Z,15.18
2024-01-19T02:36:46.079Z,13.90
2024-01-19T02:39:48.165Z,14.43
2024-01-19T02:42:50.366Z,13.50
2024-01-19T02:45:52.519Z,12.70
2024-01-19T02:48:54.769Z,14.07
2024-01-19T02:51:56.953Z,15.85
2024-01-19T02:54:59.064Z,16.05
2024-01-19T02:58:01.171Z,15.47
2024-01-19T03:01:03.946Z,13.50
2024-01-19T03:04:06.397Z,15.70
2024-01-19T03:07:08.949Z,16.23
2024-01-19T03:10:11.203Z,14.15
2024-01-19T03:13:13.469Z,15.82
2024-01-19T03:16:15.634Z,14.57
2024-01-19T03:19:18.325Z,14.97
2024-01-19T03:22:20.495Z,15.98
2024-01-19T03:25:22.761Z,16.08
2024-01-19T03:28:24.879Z,13.73
2024-01-19T03:31:26.992Z,15.30
2024-01-19T03:34:29.434Z,15.23
2024-01-19T03:37:31.703Z,14.43
2024-01-19T03:40:33.836Z,12.30
2024-01-19T03:43:36.029Z,13.98
2024-01-19T03:46:38.282Z,12.38
2024-01-19T03:49:44.564Z,14.53
2024-01-19T03:52:46.776Z,12.82
2024-01-19T03:55:49.742Z,13.30
2024-01-19T03:58:51.871Z,14.20
2024-01-19T04:01:55.357Z,12.20
2024-01-19T04:04:57.521Z,13.43
2024-01-19T04:07:59.659Z,11.65
2024-01-19T04:11:01.882Z,10.75
2024-01-19T04:14:04.618Z,12.95
2024-01-19T04:17:06.853Z,12.68
2024-01-19T04:20:09.464Z,11.50
2024-01-19T04:23:11.960Z,15.35
2024-01-19T04:26:14.227Z,12.93
2024-01-19T04:29:16.417Z,11.03
2024-01-19T04:32:18.657Z,11.20
2024-01-19T04:35:20.917Z,13.70
2024-01-19T04:38:23.136Z,10.23
2024-01-19T04:41:25.356Z,10.27
2024-01-19T04:44:27.652Z,9.68
2024-01-19T04:47:32.064Z,13.15
2024-01-19T04:50:34.331Z,12.20
2024-01-19T04:53:36.503Z,9.77
2024-01-19T04:56:39.242Z,12.32
2024-01-19T04:59:41.463Z,10.30
2024-01-19T05:02:44.594Z,10.65
2024-01-19T05:05:46.887Z,10.30
2024-01-19T05:08:49.227Z,11.65
2024-01-19T05:11:51.445Z,10.63
2024-01-19T05:14:53.728Z,11.45
2024-01-19T05:17:57.214Z,13.07
2024-01-19T05:20:59.501Z,12.70
2024-01-19T05:24:01.797Z,10.80
2024-01-19T05:27:04.428Z,10.35
2024-01-19T05:30:07.312Z,12.23
2024-01-19T05:33:09.756Z,12.25
2024-01-19T05:36:12.046Z,9.90
2024-01-19T05:39:14.309Z,12.73
2024-01-19T05:42:16.601Z,9.43
2024-01-19T05:45:19.163Z,12.13
2024-01-19T05:48:21.415Z,10.45
2024-01-19T05:51:23.601Z,11.23
2024-01-19T05:54:26.169Z,11.93
2024-01-19T05:57:28.271Z,10.95
2024-01-19T06:00:30.976Z,9.07
2024-01-19T06:03:36.903Z,10.65
2024-01-19T06:06:39.303Z,9.88
2024-01-19T06:09:44.877Z,9.48
2024-01-19T06:12:49.533Z,10.30
2024-01-19T06:15:51.769Z,12.27
2024-01-19T06:18:54.123Z,9.48
2024-01-19T06:21:59.163Z,11.30
2024-01-19T06:25:01.593Z,10.48
2024-01-19T06:28:04.173Z,11.68
2024-01-19T06:31:06.576Z,10.37
2024-01-19T06:34:08.734Z,10.45
2024-01-19T06:37:10.885Z,10.50
2024-01-19T06:40:13.294Z,9.98
2024-01-19T06:43:15.620Z,11.30
2024-01-19T06:46:17.746Z,11.32
2024-01-19T06:49:19.920Z,8.98
2024-01-19T06:52:22.150Z,9.00
2024-01-19T06:55:26.215Z,9.23
2024-01-19T06:58:28.518Z,11.35
2024-01-19T07:01:31.079Z,10.65
2024-01-19T07:04:34.080Z,9.93
2024-01-19T07:07:36.254Z,11.68
2024-01-19T07:10:38.529Z,9.52
2024-01-19T07:13:42.891Z,8.05
2024-01-19T07:16:49.222Z,9.07
2024-01-19T07:19:51.547Z,9.10
2024-01-19T07:22:54.778Z,9.20
2024-01-19T07:25:57.021Z,9.10
2024-01-19T07:29:02.842Z,9.40
2024-01-19T07:32:05.317Z,8.03
2024-01-19T07:35:07.869Z,11.57
2024-01-19T07:38:10.328Z,8.20
2024-01-19T07:41:12.539Z,7.45
2024-01-19T07:44:14.707Z,9.05
2024-01-19T07:47:16.953Z,8.60
2024-01-19T07:50:25.389Z,7.18
2024-01-19T07:53:27.709Z,7.00
2024-01-19T07:56:38.014Z,6.55
2024-01-19T07:59:40.340Z,7.88
2024-01-19T08:02:44.966Z,7.80
2024-01-19T08:05:47.586Z,7.95
2024-01-19T08:08:49.888Z,10.60
2024-01-19T08:11:52.221Z,7.25
2024-01-19T08:14:56.280Z,7.63
2024-01-19T08:17:58.605Z,6.30
2024-01-19T08:21:04.518Z,5.90
2024-01-19T08:24:06.780Z,7.53
2024-01-19T08:27:08.996Z,7.20
2024-01-19T08:30:11.824Z,5.75
2024-01-19T08:33:14.326Z,7.43
2024-01-19T08:36:16.645Z,6.50
2024-01-19T08:39:18.780Z,6.70
2024-01-19T08:42:21.007Z,6.47
2024-01-19T08:45:23.289Z,7.20
2024-01-19T08:48:26.906Z,9.57
2024-01-19T08:51:29.866Z,6.07
2024-01-19T08:54:32.048Z,6.47
2024-01-19T08:57:41.923Z,8.60
2024-01-19T09:00:44.340Z,7.47
2024-01-19T09:03:46.833Z,8.57
2024-01-19T09:06:49.153Z,7.07
2024-01-19T09:09:51.350Z,8.13
2024-01-19T09:12:53.640Z,6.22
2024-01-19T09:15:58.101Z,9.57
2024-01-19T09:19:00.499Z,7.60
2024-01-19T09:22:02.969Z,6.32
2024-01-19T09:25:05.659Z,7.60
2024-01-19T09:28:11.071Z,8.15
2024-01-19T09:31:14.128Z,7.80
2024-01-19T09:34:16.578Z,6.50
2024-01-19T09:37:18.951Z,8.95
2024-01-19T09:40:22.231Z,8.95
2024-01-19T09:43:24.480Z,8.95
2024-01-19T09:46:30.340Z,7.78
2024-01-19T09:49:57.985Z,9.70
2024-01-19T09:53:01.312Z,7.63
2024-01-19T09:56:03.869Z,9.53
2024-01-19T09:59:08.049Z,6.68
2024-01-19T10:02:11.047Z,9.48
2024-01-19T10:05:14.700Z,8.13
2024-01-19T10:08:17.914Z,8.73
2024-01-19T10:11:21.782Z,8.93
2024-01-19T10:14:27.407Z,6.97
2024-01-19T10:17:29.855Z,8.52
2024-01-19T10:20:32.881Z,11.10
2024-01-19T10:23:35.227Z,9.68
2024-01-19T10:26:38.164Z,9.70
2024-01-19T10:29:40.371Z,8.48
2024-01-19T10:32:45.365Z,8.25
2024-01-19T10:35:47.927Z,10.70
2024-01-19T10:38:50.414Z,11.30
2024-01-19T10:41:56.280Z,8.27
2024-01-19T10:45:14.747Z,9.38
2024-01-19T10:48:27.504Z,9.75
2024-01-19T10:51:36.220Z,7.80
2024-01-19T10:54:38.629Z,8.13
2024-01-19T10:57:40.895Z,7.97
2024-01-19T11:00:43.449Z,8.77
2024-01-19T11:03:45.883Z,10.32
2024-01-19T11:06:48.318Z,10.33
2024-01-19T11:09:51.878Z,8.27
2024-01-19T11:12:57.678Z,8.25
2024-01-19T11:16:01.166Z,8.98
2024-01-19T11:19:05.257Z,8.00
2024-01-19T11:22:07.647Z,8.63
2024-01-19T11:25:13.575Z,10.85
2024-01-19T11:28:23.706Z,9.83
2024-01-19T11:31:36.567Z,8.57
2024-01-19T11:34:51.280Z,10.52
2024-01-19T11:37:54.238Z,9.97
2024-01-19T11:40:56.555Z,10.85
2024-01-19T11:43:58.806Z,10.45
2024-01-19T11:47:01.004Z,8.93
2024-01-19T11:50:07.222Z,10.32
2024-01-19T11:53:09.758Z,11.82
2024-01-19T11:56:22.628Z,9.93
2024-01-19T11:59:25.162Z,10.67
2024-01-19T12:02:32.417Z,10.82
2024-01-19T12:05:35.808Z,11.35
2024-01-19T12:08:38.872Z,12.87
2024-01-19T12:11:41.214Z,14.90
2024-01-19T12:14:43.441Z,12.82
2024-01-19T12:17:46.166Z,12.82
2024-01-19T12:20:48.565Z,10.32
2024-01-19T12:23:56.278Z,10.20
2024-01-19T12:26:58.873Z,9.73
2024-01-19T12:30:23.429Z,10.47
2024-01-19T12:33:29.063Z,12.70
2024-01-19T12:36:31.373Z,12.32
2024-01-19T12:39:33.640Z,14.70
2024-01-19T12:42:37.967Z,11.38
2024-01-19T12:45:43.400Z,12.43
2024-01-19T12:48:57.485Z,12.70
2024-01-19T12:51:59.889Z,10.35
2024-01-19T12:55:04.118Z,9.88
2024-01-19T12:58:06.412Z,10.38
2024-01-19T13:01:09.162Z,12.93
2024-01-19T13:04:13.791Z,12.43
2024-01-19T13:07:22.847Z,10.73
2024-01-19T13:10:25.118Z,11.97
2024-01-19T13:13:28.376Z,14.18
2024-01-19T13:16:31.459Z,9.70
2024-01-19T13:19:53.900Z,11.27
2024-01-19T13:22:56.137Z,11.23
2024-01-19T13:25:58.403Z,11.88
2024-01-19T13:29:00.678Z,11.80
2024-01-19T13:32:03.023Z,10.73
2024-01-19T13:35:05.818Z,11.57
2024-01-19T13:38:08.276Z,10.57
2024-01-19T13:41:12.444Z,11.73
2024-01-19T13:44:14.815Z,15.32
2024-01-19T13:47:17.194Z,10.35
2024-01-19T13:50:19.534Z,13.50
2024-01-19T13:53:22.063Z,10.32
2024-01-19T13:56:24.376Z,10.75
2024-01-19T13:59:26.655Z,10.75
2024-01-19T14:02:29.151Z,12.17
2024-01-19T14:05:31.813Z,10.43
2024-01-19T14:08:34.664Z,10.57
2024-01-19T14:11:36.984Z,10.20
2024-01-19T14:14:39.552Z,12.20
2024-01-19T14:17:41.805Z,11.15
2024-01-19T14:20:47.545Z,10.48
2024-01-19T14:23:49.714Z,11.02
2024-01-19T14:26:51.916Z,12.05
2024-01-19T14:29:54.746Z,9.30
2024-01-19T14:32:58.377Z,9.77
2024-01-19T14:36:00.641Z,13.13
2024-01-19T14:39:03.075Z,8.75
2024-01-19T14:42:05.648Z,11.03
2024-01-19T14:45:10.952Z,12.63
2024-01-19T14:48:13.263Z,12.18
2024-01-19T14:51:15.777Z,9.75
2024-01-19T14:54:18.492Z,12.27
2024-01-19T14:57:23.174Z,10.40
2024-01-19T15:00:25.542Z,12.70
2024-01-19T15:03:27.826Z,12.03
2024-01-19T15:06:30.179Z,11.38
2024-01-19T15:09:32.483Z,12.52
2024-01-19T15:12:35.916Z,13.33
2024-01-19T15:15:38.294Z,13.05
2024-01-19T15:18:40.601Z,13.52
2024-01-19T15:21:42.941Z,14.35
2024-01-19T15:24:45.075Z,13.65
2024-01-19T15:27:47.236Z,16.15
2024-01-19T15:30:49.457Z,14.95
2024-01-19T15:33:52.139Z,14.07
2024-01-19T15:36:54.291Z,13.85
2024-01-19T15:39:56.563Z,15.18
2024-01-19T15:42:59.013Z,13.40
2024-01-19T15:46:01.236Z,12.50
2024-01-19T15:49:04.813Z,12.10
2024-01-19T15:52:08.273Z,11.07
2024-01-19T15:55:10.574Z,10.18
2024-01-19T15:58:12.758Z,9.82
2024-01-19T16:01:15.293Z,9.93
2024-01-19T16:04:17.503Z,11.60
2024-01-19T16:07:19.676Z,8.55
2024-01-19T16:10:21.853Z,8.40
2024-01-19T16:13:25.445Z,9.33
2024-01-19T16:16:27.728Z,8.10
2024-01-19T16:19:30.083Z,8.63
2024-01-19T16:22:32.336Z,7.18
2024-01-19T16:25:34.577Z,8.23
2024-01-19T16:28:36.784Z,8.23
2024-01-19T16:31:39.153Z,8.60
2024-01-19T16:34:41.546Z,7.40
2024-01-19T16:37:43.800Z,7.13
2024-01-19T16:40:46.061Z,6.07
2024-01-19T16:43:49.356Z,6.63
2024-01-19T16:46:52.584Z,7.93
2024-01-19T16:49:54.783Z,6.57
2024-01-19T16:52:57.003Z,5.72
2024-01-19T16:56:01.438Z,6.93
2024-01-19T16:59:03.905Z,6.97
2024-01-19T17:02:06.375Z,9.02
2024-01-19T17:05:08.652Z,7.70
2024-01-19T17:08:10.899Z,7.70
2024-01-19T17:11:13.177Z,8.57
2024-01-19T17:14:15.511Z,9.13
2024-01-19T17:17:20.054Z,8.98
2024-01-19T17:20:25.540Z,7.13
2024-01-19T17:23:28.089Z,7.72
2024-01-19T17:26:30.439Z,6.97
2024-01-19T17:29:32.771Z,6.60
2024-01-19T17:32:35.246Z,5.90
2024-01-19T17:35:37.572Z,7.80
2024-01-19T17:38:40.805Z,7.22
2024-01-19T17:41:43.588Z,6.43
2024-01-19T17:44:45.935Z,5.07
2024-01-19T17:47:52.698Z,6.68
2024-01-19T17:50:56.163Z,6.57
2024-01-19T17:53:58.711Z,6.38
2024-01-19T17:57:00.950Z,6.55
2024-01-19T18:00:03.327Z,8.93
2024-01-19T18:03:11.715Z,6.07
2024-01-19T18:06:15.728Z,7.63
2024-01-19T18:09:19.286Z,7.53
2024-01-19T18:12:25.523Z,6.07
2024-01-19T18:15:27.948Z,7.37
2024-01-19T18:18:35.439Z,7.32
2024-01-19T18:21:39.581Z,8.40
2024-01-19T18:24:41.807Z,5.18
2024-01-19T18:27:44.237Z,4.38
2024-01-19T18:30:46.461Z,5.60
2024-01-19T18:33:49.310Z,5.13
2024-01-19T18:36:51.647Z,3.93
2024-01-19T18:39:53.940Z,6.47
2024-01-19T18:42:56.155Z,5.30
2024-01-19T18:45:58.464Z,4.87
2024-01-19T18:49:00.748Z,7.00
2024-01-19T18:52:03.003Z,6.78
2024-01-19T18:55:05.454Z,5.07
2024-01-19T18:58:08.570Z,5.65
2024-01-19T19:01:16.153Z,5.88
2024-01-19T19:04:20.571Z,5.80
2024-01-19T19:07:23.629Z,7.37
2024-01-19T19:10:25.850Z,7.45
2024-01-19T19:13:28.118Z,5.90
2024-01-19T19:16:37.118Z,6.23
2024-01-19T19:19:47.929Z,5.55
2024-01-19T19:22:50.448Z,6.88
2024-01-19T19:25:52.791Z,8.40
2024-01-19T19:28:55.023Z,7.32
2024-01-19T19:31:57.212Z,7.35
2024-01-19T19:34:59.599Z,5.13
2024-01-19T19:38:01.819Z,9.37
2024-01-19T19:41:06.236Z,6.40
2024-01-19T19:44:08.433Z,5.38
2024-01-19T19:47:10.671Z,7.07
2024-01-19T19:50:12.975Z,6.25
2024-01-19T19:53:16.783Z,6.25
2024-01-19T19:56:19.149Z,8.10
2024-01-19T19:59:21.499Z,5.68
2024-01-19T20:02:24.096Z,8.65
2024-01-19T20:05:26.352Z,7.75
2024-01-19T20:08:28.496Z,7.83
2024-01-19T20:11:30.782Z,8.88
2024-01-19T20:14:34.589Z,7.50
2024-01-19T20:17:37.521Z,8.37
2024-01-19T20:20:39.740Z,10.82
2024-01-19T20:23:42.496Z,8.23
2024-01-19T20:26:44.879Z,6.43
2024-01-19T20:29:48.363Z,5.95
2024-01-19T20:32:51.068Z,6.93
2024-01-19T20:35:53.426Z,7.20
2024-01-19T20:38:55.596Z,6.53
2024-01-19T20:41:58.228Z,8.70
2024-01-19T20:45:00.348Z,6.88
2024-01-19T20:48:03.136Z,7.07
2024-01-19T20:51:06.557Z,7.00
2024-01-19T20:54:08.734Z,6.03
2024-01-19T20:57:11.166Z,7.13
2024-01-19T21:00:14.538Z,10.60
2024-01-19T21:03:16.846Z,6.90
2024-01-19T21:06:19.548Z,8.77
2024-01-19T21:09:22.030Z,7.90
2024-01-19T21:12:24.216Z,6.78
2024-01-19T21:15:28.573Z,6.00
2024-01-19T21:18:31.329Z,8.53
2024-01-19T21:21:35.679Z,7.60
2024-01-19T21:24:38.650Z,5.65
2024-01-19T21:27:41.606Z,8.13
2024-01-19T21:30:43.958Z,6.97
2024-01-19T21:33:46.189Z,8.23
2024-01-19T21:36:48.286Z,7.25
2024-01-19T21:39:51.496Z,6.83
2024-01-19T21:42:54.153Z,7.53
2024-01-19T21:45:56.520Z,6.07
2024-01-19T21:48:59.135Z,6.80
2024-01-19T21:52:01.992Z,4.15
2024-01-19T21:55:07.493Z,4.35
2024-01-19T21:58:09.964Z,6.13
2024-01-19T22:01:15.888Z,8.32
2024-01-19T22:04:20.741Z,5.03
2024-01-19T22:07:23.222Z,5.55
2024-01-19T22:10:25.871Z,4.07
2024-01-19T22:13:31.644Z,4.60
2024-01-19T22:16:33.844Z,5.03
2024-01-19T22:19:36.224Z,4.97
2024-01-19T22:22:38.537Z,3.80
2024-01-19T22:25:41.533Z,6.43
2024-01-19T22:28:43.778Z,4.43
2024-01-19T22:31:46.097Z,4.57
2024-01-19T22:34:48.370Z,4.22
2024-01-19T22:37:50.779Z,3.35
2024-01-19T22:40:53.116Z,4.70
2024-01-19T22:43:55.490Z,5.70
2024-01-19T22:46:57.756Z,4.93
2024-01-19T22:50:00.026Z,4.70
2024-01-19T22:53:02.853Z,5.55
2024-01-19T22:56:05.476Z,4.25
2024-01-19T22:59:07.783Z,4.68
2024-01-19T23:02:10.032Z,5.07
2024-01-19T23:05:12.942Z,4.28
2024-01-19T23:08:15.483Z,6.30
2024-01-19T23:11:18.087Z,3.90
2024-01-19T23:14:20.914Z,5.30
2024-01-19T23:17:23.390Z,7.72
2024-01-19T23:20:26.338Z,4.90
2024-01-19T23:23:28.951Z,4.65
2024-01-19T23:26:31.335Z,5.40
2024-01-19T23:29:34.948Z,6.10
2024-01-19T23:32:37.515Z,6.40
2024-01-19T23:35:39.840Z,7.57
2024-01-19T23:38:42.106Z,6.75
2024-01-19T23:41:44.371Z,5.03
2024-01-19T23:44:47.592Z,5.57
2024-01-19T23:47:50.272Z,6.07
2024-01-19T23:50:52.747Z,5.37
2024-01-19T23:53:54.882Z,6.03
2024-01-19T23:56:57.231Z,8.18
2024-01-19T23:59:59.448Z,5.47
